Fort Hood, Texas
Current Conditions -  °F | °C
As of 6:58 PM on Monday 22 Dec 2014 (Local Time) from KHLR Reporting Station
Clear Clear  
Wind Chill: 14°   Ceiling: Unl
Heat Index: 14°   Visibility: 10mi
Dew Point:   Wind: 8mph
Humidity: 54%   Direction: 350°N
Pressure: 29.65"   Gusts: NA
Location:  31.2151°N, 97.7405°W
Report Text: KHLR 230058Z AUTO 35007KT 10SM CLR 14/05 A2965 RMK AO2 SLP036 T01420051
Loading
Personal Weather Stations






























Interactive Weather Map New forecast layout! Learn more

10-Day Weather Forecast

Advertisements
Track Severe Weather on mobile